createdAt,value
2023-05-14T00:00:04.182Z,2.57
2023-05-14T00:01:07.433Z,3.43
2023-05-14T00:02:10.569Z,2.57
2023-05-14T00:04:21.345Z,2.75
2023-05-14T00:06:41.015Z,3.00
2023-05-14T00:07:44.199Z,2.57
2023-05-14T00:08:47.604Z,2.43
2023-05-14T00:09:51.071Z,3.00
2023-05-14T00:10:54.131Z,2.62
2023-05-14T00:11:57.730Z,3.33
2023-05-14T00:13:00.690Z,3.29
2023-05-14T00:14:04.067Z,2.33
2023-05-14T00:15:07.570Z,3.86
2023-05-14T00:16:10.985Z,4.00
2023-05-14T00:17:14.134Z,3.00
2023-05-14T00:18:17.520Z,3.29
2023-05-14T00:19:24.630Z,4.00
2023-05-14T00:20:28.114Z,4.00
2023-05-14T00:21:31.398Z,3.14
2023-05-14T00:22:34.581Z,3.57
2023-05-14T00:23:37.764Z,3.57
2023-05-14T00:25:48.531Z,3.50
2023-05-14T00:26:51.734Z,3.17
2023-05-14T00:27:54.807Z,3.29
2023-05-14T00:28:57.446Z,3.29
2023-05-14T00:31:08.685Z,4.00
2023-05-14T00:32:27.436Z,4.57
2023-05-14T00:33:30.681Z,4.00
2023-05-14T00:34:34.058Z,4.86
2023-05-14T00:35:37.546Z,5.00
2023-05-14T00:36:40.941Z,4.43
2023-05-14T00:37:44.294Z,4.43
2023-05-14T00:38:47.706Z,5.14
2023-05-14T00:39:50.910Z,5.00
2023-05-14T00:40:54.081Z,5.33
2023-05-14T00:41:57.561Z,5.57
2023-05-14T00:43:00.844Z,3.50
2023-05-14T00:44:04.432Z,3.57
2023-05-14T00:45:07.923Z,4.14
2023-05-14T00:46:11.521Z,4.57
2023-05-14T00:47:15.208Z,4.57
2023-05-14T00:48:18.564Z,4.29
2023-05-14T00:49:22.198Z,4.43
2023-05-14T00:50:25.969Z,4.00
2023-05-14T00:51:29.779Z,4.00
2023-05-14T00:52:33.273Z,4.43
2023-05-14T00:53:36.860Z,4.57
2023-05-14T00:54:40.660Z,4.00
2023-05-14T00:57:00.349Z,3.50
2023-05-14T00:58:04.246Z,3.57
2023-05-14T00:59:07.527Z,3.86
2023-05-14T01:00:10.713Z,4.00
2023-05-14T01:01:14.250Z,3.67
2023-05-14T01:02:17.678Z,3.57
2023-05-14T01:03:21.194Z,2.43
2023-05-14T01:04:24.658Z,1.57
2023-05-14T01:05:28.564Z,2.00
2023-05-14T01:06:32.042Z,2.00
2023-05-14T01:07:35.244Z,2.00
2023-05-14T01:08:38.405Z,2.00
2023-05-14T01:09:41.692Z,2.43
2023-05-14T01:12:01.059Z,3.00
2023-05-14T01:13:04.544Z,2.43
2023-05-14T01:14:07.946Z,2.00
2023-05-14T01:15:11.468Z,0.57
2023-05-14T01:16:14.979Z,0.86
2023-05-14T01:17:18.504Z,2.14
2023-05-14T01:18:21.988Z,2.71
2023-05-14T01:19:25.485Z,2.14
2023-05-14T01:20:29.173Z,1.12
2023-05-14T01:21:32.580Z,1.14
2023-05-14T01:23:52.050Z,0.00
2023-05-14T01:24:55.219Z,0.00
2023-05-14T01:25:58.418Z,0.00
2023-05-14T01:27:01.577Z,0.00
2023-05-14T01:28:04.829Z,0.00
2023-05-14T01:29:08.041Z,0.00
2023-05-14T01:30:11.456Z,0.00
2023-05-14T01:31:15.023Z,0.00
2023-05-14T01:32:18.431Z,0.00
2023-05-14T01:33:21.914Z,0.00
2023-05-14T01:34:25.499Z,0.00
2023-05-14T01:35:28.836Z,0.00
2023-05-14T01:36:32.362Z,0.00
2023-05-14T01:37:35.963Z,0.00
2023-05-14T01:38:39.445Z,0.00
2023-05-14T01:39:58.587Z,0.00
2023-05-14T01:41:01.991Z,0.00
2023-05-14T01:42:05.585Z,0.00
2023-05-14T01:43:08.857Z,0.00
2023-05-14T01:44:12.148Z,0.00
2023-05-14T01:45:15.397Z,0.00
2023-05-14T01:46:18.673Z,0.00
2023-05-14T01:47:21.898Z,0.00
2023-05-14T01:48:25.065Z,0.00
2023-05-14T01:49:28.257Z,0.00
2023-05-14T01:50:31.452Z,0.00
2023-05-14T01:51:34.588Z,0.00
2023-05-14T01:52:37.801Z,0.00
2023-05-14T01:53:40.981Z,0.00
2023-05-14T01:54:44.168Z,0.00
2023-05-14T01:55:47.311Z,0.00
2023-05-14T01:56:50.648Z,0.00
2023-05-14T01:59:11.644Z,0.00
2023-05-14T02:00:15.130Z,0.00
2023-05-14T02:01:18.566Z,0.00
2023-05-14T02:02:22.104Z,0.00
2023-05-14T02:03:25.595Z,0.00
2023-05-14T02:04:28.946Z,0.00
2023-05-14T02:05:32.470Z,0.00
2023-05-14T02:06:35.938Z,0.00
2023-05-14T02:07:39.460Z,0.00
2023-05-14T02:08:43.146Z,0.00
2023-05-14T02:09:46.643Z,0.00
2023-05-14T02:10:50.226Z,0.00
2023-05-14T02:11:53.712Z,0.00
2023-05-14T02:12:57.196Z,0.00
2023-05-14T02:15:17.160Z,0.00
2023-05-14T02:16:20.512Z,0.00
2023-05-14T02:17:24.303Z,0.00
2023-05-14T02:18:27.973Z,0.00
2023-05-14T02:19:31.349Z,0.00
2023-05-14T02:20:34.840Z,0.00
2023-05-14T02:21:38.023Z,0.00
2023-05-14T02:22:41.521Z,0.00
2023-05-14T02:23:44.990Z,0.00
2023-05-14T02:24:48.386Z,0.00
2023-05-14T02:25:51.659Z,0.00
2023-05-14T02:26:55.160Z,0.00
2023-05-14T02:27:58.329Z,0.00
2023-05-14T02:29:01.724Z,0.00
2023-05-14T02:30:05.217Z,0.00
2023-05-14T02:31:08.885Z,0.00
2023-05-14T02:33:20.319Z,0.00
2023-05-14T02:34:23.777Z,0.00
2023-05-14T02:35:27.186Z,0.00
2023-05-14T02:36:30.546Z,0.00
2023-05-14T02:37:34.043Z,0.00
2023-05-14T02:39:40.930Z,0.00
2023-05-14T02:40:44.320Z,0.00
2023-05-14T02:53:18.720Z,0.00
2023-05-14T02:54:21.883Z,0.43
2023-05-14T02:55:25.264Z,0.43
2023-05-14T02:56:28.508Z,0.86
2023-05-14T02:57:31.636Z,1.43
2023-05-14T02:58:34.670Z,0.57
2023-05-14T02:59:37.893Z,0.00
2023-05-14T03:00:41.910Z,0.00
2023-05-14T03:01:45.489Z,0.43
2023-05-14T03:02:49.288Z,1.00
2023-05-14T03:03:53.280Z,0.14
2023-05-14T03:04:56.464Z,0.00
2023-05-14T03:05:59.737Z,0.00
2023-05-14T03:07:02.942Z,0.00
2023-05-14T03:08:06.212Z,0.00
2023-05-14T03:09:09.396Z,0.00
2023-05-14T03:10:13.093Z,0.00
2023-05-14T03:11:16.580Z,0.00
2023-05-14T03:12:20.071Z,0.00
2023-05-14T03:13:23.562Z,0.00
2023-05-14T03:14:27.046Z,0.00
2023-05-14T03:15:30.547Z,0.00
2023-05-14T03:16:34.147Z,0.00
2023-05-14T03:17:37.522Z,0.00
2023-05-14T03:18:41.004Z,0.00
2023-05-14T03:19:44.253Z,0.00
2023-05-14T03:20:47.813Z,0.00
2023-05-14T03:21:51.134Z,0.00
2023-05-14T03:22:54.415Z,0.00
2023-05-14T03:23:57.936Z,0.00
2023-05-14T03:25:01.132Z,0.43
2023-05-14T03:26:04.502Z,0.67
2023-05-14T03:27:08.307Z,0.00
2023-05-14T03:28:14.458Z,0.00
2023-05-14T03:29:17.980Z,0.00
2023-05-14T03:30:21.633Z,0.00
2023-05-14T03:31:25.339Z,0.00
2023-05-14T03:32:28.556Z,0.00
2023-05-14T03:33:31.796Z,0.00
2023-05-14T03:34:35.074Z,0.00
2023-05-14T03:35:38.459Z,0.00
2023-05-14T03:36:41.846Z,0.00
2023-05-14T03:37:45.036Z,0.00
2023-05-14T03:38:48.317Z,0.00
2023-05-14T03:39:51.598Z,0.00
2023-05-14T03:40:54.788Z,0.00
2023-05-14T03:41:58.066Z,0.00
2023-05-14T03:43:01.457Z,0.00
2023-05-14T03:44:04.638Z,0.00
2023-05-14T03:45:07.922Z,0.00
2023-05-14T03:46:11.315Z,0.00
2023-05-14T03:47:14.498Z,0.00
2023-05-14T03:48:17.654Z,0.00
2023-05-14T03:49:20.957Z,0.00
2023-05-14T03:50:24.380Z,0.00
2023-05-14T03:51:27.630Z,0.00
2023-05-14T03:52:30.812Z,0.00
2023-05-14T03:53:34.093Z,0.00
2023-05-14T03:54:37.273Z,0.14
2023-05-14T03:55:40.458Z,0.00
2023-05-14T03:56:43.639Z,0.00
2023-05-14T03:57:46.928Z,0.00
2023-05-14T03:58:50.205Z,0.00
2023-05-14T03:59:53.488Z,0.00
2023-05-14T04:00:56.788Z,0.00
2023-05-14T04:01:59.979Z,0.00
2023-05-14T04:03:03.205Z,0.00
2023-05-14T04:04:06.579Z,0.00
2023-05-14T04:05:09.927Z,0.00
2023-05-14T04:06:13.199Z,0.00
2023-05-14T04:07:16.479Z,0.00
2023-05-14T04:08:19.759Z,0.00
2023-05-14T04:09:22.919Z,0.00
2023-05-14T04:10:26.234Z,0.00
2023-05-14T04:11:29.424Z,0.00
2023-05-14T04:12:32.492Z,0.00
2023-05-14T04:13:35.674Z,0.00
2023-05-14T04:14:38.856Z,0.00
2023-05-14T04:15:42.041Z,0.00
2023-05-14T04:16:45.382Z,0.00
2023-05-14T04:17:48.737Z,0.00
2023-05-14T04:18:51.932Z,0.00
2023-05-14T04:19:55.174Z,0.00
2023-05-14T04:20:58.269Z,0.00
2023-05-14T04:22:01.358Z,0.00
2023-05-14T04:23:04.618Z,0.00
2023-05-14T04:24:07.926Z,0.00
2023-05-14T04:25:11.312Z,0.00
2023-05-14T04:26:14.572Z,0.00
2023-05-14T04:27:17.737Z,0.00
2023-05-14T04:28:20.941Z,0.00
2023-05-14T04:29:24.141Z,0.00
2023-05-14T04:30:27.313Z,0.00
2023-05-14T04:31:30.642Z,0.00
2023-05-14T04:32:33.877Z,0.00
2023-05-14T04:33:37.151Z,0.00
2023-05-14T04:34:40.431Z,0.00
2023-05-14T04:35:43.620Z,0.00
2023-05-14T04:36:46.803Z,0.00
2023-05-14T04:37:50.082Z,0.00
2023-05-14T04:38:53.259Z,0.00
2023-05-14T04:39:56.548Z,0.00
2023-05-14T04:40:59.829Z,0.00
2023-05-14T04:42:03.033Z,0.00
2023-05-14T04:43:06.194Z,0.00
2023-05-14T04:44:09.373Z,0.00
2023-05-14T04:45:12.674Z,0.00
2023-05-14T04:46:15.851Z,0.00
2023-05-14T04:47:19.032Z,0.00
2023-05-14T04:48:22.305Z,0.00
2023-05-14T04:49:25.492Z,0.00
2023-05-14T04:50:28.673Z,0.00
2023-05-14T04:51:31.938Z,0.00
2023-05-14T04:52:35.241Z,0.00
2023-05-14T04:53:38.422Z,0.00
2023-05-14T04:54:42.137Z,0.00
2023-05-14T04:55:45.672Z,0.00
2023-05-14T04:56:49.296Z,0.00
2023-05-14T04:57:52.681Z,0.00
2023-05-14T04:58:56.077Z,0.00
2023-05-14T04:59:59.457Z,0.00
2023-05-14T05:01:03.010Z,0.00
2023-05-14T05:02:06.552Z,0.00
2023-05-14T05:03:10.028Z,0.00
2023-05-14T05:04:13.524Z,0.00
2023-05-14T05:05:16.932Z,0.00
2023-05-14T05:06:20.312Z,0.00
2023-05-14T05:07:23.611Z,0.00
2023-05-14T05:08:27.166Z,0.00
2023-05-14T05:09:30.637Z,0.00
2023-05-14T05:10:34.562Z,0.00
2023-05-14T05:11:38.051Z,0.00
2023-05-14T05:12:41.641Z,0.00
2023-05-14T05:13:45.451Z,0.00
2023-05-14T05:14:48.747Z,0.00
2023-05-14T05:15:52.171Z,0.00
2023-05-14T05:16:55.716Z,0.00
2023-05-14T05:17:59.358Z,0.00
2023-05-14T05:19:02.902Z,0.00
2023-05-14T05:20:06.302Z,0.00
2023-05-14T05:21:09.861Z,0.00
2023-05-14T05:22:13.289Z,0.00
2023-05-14T05:23:16.768Z,0.00
2023-05-14T05:24:20.325Z,0.00
2023-05-14T05:25:24.130Z,0.00
2023-05-14T05:26:27.640Z,0.00
2023-05-14T05:27:30.668Z,0.00
2023-05-14T05:28:33.880Z,0.00
2023-05-14T05:29:37.096Z,0.00
2023-05-14T05:30:40.341Z,0.00
2023-05-14T05:31:43.668Z,0.00
2023-05-14T05:32:46.735Z,0.00
2023-05-14T05:33:49.986Z,0.00
2023-05-14T05:34:53.156Z,0.00
2023-05-14T05:35:56.661Z,0.00
2023-05-14T05:36:59.836Z,0.00
2023-05-14T05:38:03.054Z,0.00
2023-05-14T05:39:06.825Z,0.00
2023-05-14T05:40:10.308Z,0.00
2023-05-14T05:41:13.455Z,0.00
2023-05-14T05:42:16.699Z,0.00
2023-05-14T05:43:20.052Z,0.00
2023-05-14T05:44:23.138Z,0.00
2023-05-14T05:45:26.418Z,0.00
2023-05-14T05:46:29.737Z,0.00
2023-05-14T05:47:33.244Z,0.00
2023-05-14T05:48:36.568Z,0.00
2023-05-14T05:49:39.966Z,0.00
2023-05-14T05:50:43.244Z,0.00
2023-05-14T05:51:46.759Z,0.00
2023-05-14T05:52:50.023Z,0.00
2023-05-14T05:53:53.169Z,0.00
2023-05-14T05:54:56.388Z,0.00
2023-05-14T05:55:59.675Z,0.00
2023-05-14T05:57:02.918Z,0.00
2023-05-14T05:58:06.262Z,0.00
2023-05-14T05:59:09.829Z,0.00
2023-05-14T06:00:13.181Z,0.00
2023-05-14T06:01:16.349Z,0.00
2023-05-14T06:02:19.626Z,0.00
2023-05-14T06:03:22.749Z,0.00
2023-05-14T06:04:25.950Z,0.00
2023-05-14T06:05:29.294Z,0.00
2023-05-14T06:06:33.252Z,0.00
2023-05-14T06:07:36.957Z,0.00
2023-05-14T06:08:40.310Z,0.00
2023-05-14T06:09:43.387Z,0.00
2023-05-14T06:10:47.630Z,0.00
2023-05-14T06:11:51.186Z,0.00
2023-05-14T06:12:54.568Z,0.00
2023-05-14T06:13:57.959Z,0.00
2023-05-14T06:15:03.310Z,0.00
2023-05-14T06:16:06.814Z,0.00
2023-05-14T06:17:10.380Z,0.00
2023-05-14T06:18:13.964Z,0.00
2023-05-14T06:19:17.452Z,0.00
2023-05-14T06:20:21.121Z,0.00
2023-05-14T06:21:24.494Z,0.00
2023-05-14T06:22:28.142Z,0.00
2023-05-14T06:23:31.476Z,0.00
2023-05-14T06:24:34.799Z,0.00
2023-05-14T06:25:38.604Z,0.00
2023-05-14T06:26:47.844Z,0.00
2023-05-14T06:27:51.413Z,0.00
2023-05-14T06:28:54.796Z,0.00
2023-05-14T06:29:58.226Z,0.00
2023-05-14T06:31:02.497Z,0.00
2023-05-14T06:32:06.096Z,0.00
2023-05-14T06:33:09.192Z,0.00
2023-05-14T06:34:12.354Z,0.00
2023-05-14T06:35:15.480Z,0.00
2023-05-14T06:36:19.020Z,0.00
2023-05-14T06:37:22.296Z,0.00
2023-05-14T06:38:25.339Z,0.00
2023-05-14T06:39:28.561Z,0.00
2023-05-14T06:40:31.957Z,0.00
2023-05-14T06:41:35.642Z,0.00
2023-05-14T06:42:39.171Z,0.00
2023-05-14T06:43:42.620Z,0.00
2023-05-14T06:44:45.812Z,0.00
2023-05-14T06:45:49.066Z,0.00
2023-05-14T06:46:52.987Z,0.00
2023-05-14T06:47:56.630Z,0.00
2023-05-14T06:48:59.978Z,0.00
2023-05-14T06:50:03.770Z,0.00
2023-05-14T06:51:09.415Z,0.00
2023-05-14T06:52:12.988Z,0.00
2023-05-14T06:53:16.493Z,0.00
2023-05-14T06:54:19.964Z,0.00
2023-05-14T06:55:23.468Z,0.00
2023-05-14T06:56:27.146Z,0.00
2023-05-14T06:57:30.329Z,0.00
2023-05-14T06:58:33.723Z,0.00
2023-05-14T06:59:37.104Z,0.00
2023-05-14T07:00:40.511Z,0.00
2023-05-14T07:01:44.028Z,0.00
2023-05-14T07:02:47.549Z,0.00
2023-05-14T07:03:50.872Z,0.00
2023-05-14T07:04:54.352Z,0.00
2023-05-14T07:05:57.632Z,0.00
2023-05-14T07:07:01.012Z,0.00
2023-05-14T07:08:04.703Z,0.00
2023-05-14T07:09:08.299Z,0.00
2023-05-14T07:10:11.684Z,0.00
2023-05-14T07:11:15.172Z,0.00
2023-05-14T07:12:18.361Z,0.00
2023-05-14T07:13:21.644Z,0.00
2023-05-14T07:14:24.830Z,0.00
2023-05-14T07:15:27.909Z,0.00
2023-05-14T07:16:31.003Z,0.00
2023-05-14T07:17:34.113Z,0.00
2023-05-14T07:18:37.380Z,0.00
2023-05-14T07:19:40.526Z,0.00
2023-05-14T07:20:43.709Z,0.00
2023-05-14T07:21:46.891Z,0.00
2023-05-14T07:22:50.175Z,0.00
2023-05-14T07:23:53.457Z,0.00
2023-05-14T07:24:56.742Z,0.00
2023-05-14T07:25:59.836Z,0.00
2023-05-14T07:27:02.937Z,0.00
2023-05-14T07:28:06.262Z,0.00
2023-05-14T07:29:09.770Z,0.00
2023-05-14T07:30:12.738Z,0.00
2023-05-14T07:31:16.055Z,0.00
2023-05-14T07:32:19.340Z,0.00
2023-05-14T07:33:22.390Z,0.00
2023-05-14T07:34:25.711Z,0.00
2023-05-14T07:35:28.906Z,0.00
2023-05-14T07:36:31.960Z,0.43
2023-05-14T07:37:35.036Z,1.00
2023-05-14T07:38:38.109Z,1.00
2023-05-14T07:39:41.287Z,1.00
2023-05-14T07:40:44.486Z,0.43
2023-05-14T07:41:47.756Z,1.00
2023-05-14T07:42:50.939Z,2.29
2023-05-14T07:43:54.223Z,3.57
2023-05-14T07:44:57.399Z,3.00
2023-05-14T07:46:00.490Z,2.71
2023-05-14T07:47:03.595Z,3.00
2023-05-14T07:48:07.020Z,2.67
2023-05-14T07:49:10.434Z,2.00
2023-05-14T07:50:14.141Z,2.00
2023-05-14T07:51:17.436Z,2.00
2023-05-14T07:52:20.718Z,1.57
2023-05-14T07:53:24.397Z,1.00
2023-05-14T07:54:27.676Z,1.00
2023-05-14T07:55:31.369Z,1.00
2023-05-14T07:56:34.791Z,1.00
2023-05-14T07:57:38.365Z,0.57
2023-05-14T07:58:41.715Z,0.43
2023-05-14T07:59:44.936Z,0.67
2023-05-14T08:00:48.460Z,0.00
2023-05-14T08:01:51.266Z,0.00
2023-05-14T08:02:54.593Z,0.00
2023-05-14T08:03:58.171Z,0.00
2023-05-14T08:05:01.460Z,0.00
2023-05-14T08:06:04.929Z,0.33
2023-05-14T08:07:08.313Z,1.00
2023-05-14T08:08:11.806Z,1.00
2023-05-14T08:09:15.212Z,1.00
2023-05-14T08:10:18.684Z,1.00
2023-05-14T08:11:22.248Z,0.43
2023-05-14T08:12:25.559Z,1.00
2023-05-14T08:13:28.843Z,0.57
2023-05-14T08:14:32.131Z,0.00
2023-05-14T08:15:35.713Z,0.43
2023-05-14T08:16:39.124Z,0.57
2023-05-14T08:17:42.512Z,0.00
2023-05-14T08:18:45.614Z,0.33
2023-05-14T08:19:48.861Z,1.00
2023-05-14T08:20:52.049Z,1.00
2023-05-14T08:21:55.555Z,0.67
2023-05-14T08:22:58.725Z,0.00
2023-05-14T08:24:01.898Z,0.00
2023-05-14T08:25:05.085Z,0.00
2023-05-14T08:26:08.358Z,0.43
2023-05-14T08:27:11.749Z,1.00
2023-05-14T08:28:14.929Z,1.00
2023-05-14T08:29:18.118Z,0.43
2023-05-14T08:30:21.953Z,0.00
2023-05-14T08:31:25.753Z,0.00
2023-05-14T08:32:29.048Z,0.14
2023-05-14T08:33:32.496Z,0.00
2023-05-14T08:34:35.960Z,0.00
2023-05-14T08:35:39.254Z,1.00
2023-05-14T08:36:42.537Z,1.00
2023-05-14T08:37:46.232Z,0.71
2023-05-14T08:38:49.511Z,0.86
2023-05-14T08:39:52.899Z,0.57
2023-05-14T08:40:56.292Z,0.00
2023-05-14T08:41:59.812Z,0.00
2023-05-14T08:43:04.908Z,0.00
2023-05-14T08:44:08.392Z,0.00
2023-05-14T08:45:11.780Z,0.00
2023-05-14T08:46:15.190Z,0.00
2023-05-14T08:47:18.362Z,0.00
2023-05-14T08:48:21.787Z,0.43
2023-05-14T08:49:24.670Z,0.43
2023-05-14T08:50:27.827Z,0.43
2023-05-14T08:51:30.623Z,1.00
2023-05-14T08:52:33.243Z,1.50
2023-05-14T08:53:35.939Z,1.67
2023-05-14T08:54:38.503Z,1.00
2023-05-14T08:55:41.129Z,1.33
2023-05-14T08:56:43.688Z,2.33
2023-05-14T08:57:46.306Z,3.00
2023-05-14T08:58:48.923Z,3.00
2023-05-14T08:59:51.495Z,2.67
2023-05-14T09:00:54.097Z,2.33
2023-05-14T09:01:56.746Z,2.67
2023-05-14T09:02:59.334Z,2.33
2023-05-14T09:04:02.250Z,2.67
2023-05-14T09:05:05.160Z,2.57
2023-05-14T09:06:07.928Z,2.00
2023-05-14T09:07:10.750Z,2.00
2023-05-14T09:08:13.596Z,2.00
2023-05-14T09:09:16.520Z,2.00
2023-05-14T09:10:19.370Z,2.00
2023-05-14T09:11:22.226Z,2.00
2023-05-14T09:12:25.020Z,2.33
2023-05-14T09:13:28.430Z,2.67
2023-05-14T09:14:31.455Z,2.67
2023-05-14T09:15:34.235Z,2.17
2023-05-14T09:16:37.193Z,3.00
2023-05-14T09:17:40.077Z,3.00
2023-05-14T09:18:42.772Z,3.00
2023-05-14T09:19:45.822Z,3.00
2023-05-14T09:20:48.469Z,2.57
2023-05-14T09:21:51.121Z,2.33
2023-05-14T09:22:53.655Z,2.67
2023-05-14T09:23:56.272Z,2.67
2023-05-14T09:24:59.053Z,2.67
2023-05-14T09:26:01.688Z,2.00
2023-05-14T09:27:04.232Z,2.00
2023-05-14T09:28:07.095Z,2.00
2023-05-14T09:29:09.937Z,2.00
2023-05-14T09:30:12.954Z,2.00
2023-05-14T09:31:15.862Z,2.00
2023-05-14T09:32:18.663Z,2.33
2023-05-14T09:33:21.644Z,3.00
2023-05-14T09:34:24.495Z,3.00
2023-05-14T09:35:27.510Z,2.00
2023-05-14T09:36:30.691Z,3.00
2023-05-14T09:37:33.318Z,3.00
2023-05-14T09:38:35.932Z,3.33
2023-05-14T09:39:38.562Z,3.00
2023-05-14T09:40:41.262Z,3.00
2023-05-14T09:41:43.901Z,3.00
2023-05-14T09:42:46.587Z,2.67
2023-05-14T09:43:49.230Z,2.33
2023-05-14T09:44:51.828Z,2.83
2023-05-14T09:45:54.867Z,2.33
2023-05-14T09:46:57.749Z,3.00
2023-05-14T09:48:00.475Z,2.67
2023-05-14T09:49:03.413Z,2.43
2023-05-14T09:50:06.298Z,3.00
2023-05-14T09:51:09.342Z,3.00
2023-05-14T09:52:12.167Z,3.00
2023-05-14T09:53:15.015Z,3.00
2023-05-14T09:54:17.859Z,3.00
2023-05-14T09:55:20.743Z,3.43
2023-05-14T09:56:23.722Z,3.67
2023-05-14T09:57:26.624Z,3.00
2023-05-14T09:58:29.470Z,3.33
2023-05-14T09:59:32.084Z,3.14
2023-05-14T10:00:34.725Z,3.33
2023-05-14T10:01:37.626Z,3.33
2023-05-14T10:02:40.312Z,2.43
2023-05-14T10:03:43.007Z,2.67
2023-05-14T10:04:45.704Z,2.00
2023-05-14T10:05:48.355Z,2.43
2023-05-14T10:06:51.065Z,3.33
2023-05-14T10:07:53.636Z,4.33
2023-05-14T10:08:56.231Z,5.00
2023-05-14T10:09:59.581Z,4.33
2023-05-14T10:11:02.631Z,3.57
2023-05-14T10:12:05.547Z,3.67
2023-05-14T10:13:08.369Z,4.43
2023-05-14T10:14:11.171Z,3.33
2023-05-14T10:15:14.001Z,3.29
2023-05-14T10:16:16.612Z,3.00
2023-05-14T10:17:19.473Z,2.67
2023-05-14T10:18:22.296Z,2.43
2023-05-14T10:19:25.229Z,2.67
2023-05-14T10:20:28.012Z,2.00
2023-05-14T10:21:30.816Z,2.00
2023-05-14T10:22:33.628Z,2.00
2023-05-14T10:23:36.273Z,2.33
2023-05-14T10:24:38.822Z,2.67
2023-05-14T10:25:41.453Z,2.83
2023-05-14T10:26:44.021Z,3.00
2023-05-14T10:27:46.737Z,3.00
2023-05-14T10:28:49.366Z,3.00
2023-05-14T10:29:51.979Z,3.50
2023-05-14T10:30:54.508Z,3.17
2023-05-14T10:31:57.108Z,3.67
2023-05-14T10:33:00.035Z,4.00
2023-05-14T10:34:02.828Z,3.00
2023-05-14T10:35:05.913Z,3.43
2023-05-14T10:36:08.805Z,3.33
2023-05-14T10:37:11.633Z,3.33
2023-05-14T10:38:14.452Z,3.67
2023-05-14T10:39:17.364Z,2.67
2023-05-14T10:47:36.570Z,2.80
2023-05-14T10:48:39.429Z,1.33
2023-05-14T10:49:43.789Z,2.00
2023-05-14T10:50:46.262Z,1.50
2023-05-14T10:51:49.104Z,1.33
2023-05-14T10:52:52.936Z,2.00
2023-05-14T10:53:55.760Z,1.86
2023-05-14T10:54:59.569Z,2.00
2023-05-14T10:56:02.184Z,2.00
2023-05-14T10:57:04.815Z,2.17
2023-05-14T10:58:07.440Z,2.50
2023-05-14T10:59:10.051Z,2.50
2023-05-14T11:00:12.685Z,2.50
2023-05-14T11:01:15.463Z,2.67
2023-05-14T11:02:18.031Z,3.00
2023-05-14T11:03:20.637Z,2.67
2023-05-14T11:04:23.359Z,3.00
2023-05-14T11:05:25.975Z,3.00
2023-05-14T11:06:28.773Z,2.67
2023-05-14T11:07:31.657Z,3.33
2023-05-14T11:08:34.559Z,4.00
2023-05-14T11:09:37.462Z,4.00
2023-05-14T11:10:40.098Z,3.57
2023-05-14T11:11:42.680Z,3.67
2023-05-14T11:12:45.272Z,4.67
2023-05-14T11:13:47.845Z,3.67
2023-05-14T11:14:50.528Z,3.00
2023-05-14T11:15:53.184Z,3.33
2023-05-14T11:16:55.822Z,3.67
2023-05-14T11:17:58.481Z,3.00
2023-05-14T11:19:01.177Z,2.67
2023-05-14T11:20:03.815Z,2.00
2023-05-14T11:21:06.355Z,2.00
2023-05-14T11:22:08.943Z,2.33
2023-05-14T11:23:11.472Z,2.67
2023-05-14T11:24:14.181Z,2.33
2023-05-14T11:25:17.190Z,3.00
2023-05-14T11:26:21.507Z,2.57
2023-05-14T11:27:23.854Z,2.00
2023-05-14T11:28:26.759Z,2.00
2023-05-14T11:29:29.566Z,2.43
2023-05-14T11:30:32.393Z,2.00
2023-05-14T11:31:35.236Z,2.67
2023-05-14T11:32:38.159Z,2.83
2023-05-14T11:33:41.075Z,2.00
2023-05-14T11:34:44.176Z,2.00
2023-05-14T11:35:47.643Z,2.00
2023-05-14T11:36:50.438Z,2.43
2023-05-14T11:37:53.392Z,3.00
2023-05-14T11:38:55.994Z,3.00
2023-05-14T11:40:01.829Z,3.00
2023-05-14T11:41:04.722Z,3.00
2023-05-14T11:42:07.443Z,2.83
2023-05-14T11:43:10.004Z,2.33
2023-05-14T11:44:12.610Z,3.00
2023-05-14T11:45:15.161Z,3.00
2023-05-14T11:46:17.901Z,3.00
2023-05-14T11:47:20.659Z,3.00
2023-05-14T11:48:23.223Z,2.67
2023-05-14T11:49:25.744Z,2.33
2023-05-14T11:50:28.313Z,3.00
2023-05-14T11:51:31.161Z,3.00
2023-05-14T11:52:33.916Z,2.86
2023-05-14T11:53:36.774Z,3.00
2023-05-14T11:54:39.281Z,2.67
2023-05-14T11:55:42.089Z,2.00
2023-05-14T11:56:44.755Z,2.00
2023-05-14T11:57:47.383Z,2.33
2023-05-14T11:58:49.934Z,2.67
2023-05-14T11:59:52.577Z,2.33
2023-05-14T12:00:55.177Z,3.00
2023-05-14T12:01:58.003Z,3.00
2023-05-14T12:03:00.558Z,3.00
2023-05-14T12:04:03.292Z,3.33
2023-05-14T12:05:06.083Z,3.14
2023-05-14T12:06:08.645Z,2.67
2023-05-14T12:07:11.434Z,2.33
2023-05-14T12:08:13.953Z,2.67
2023-05-14T12:09:16.707Z,3.00
2023-05-14T12:10:19.572Z,2.67
2023-05-14T12:11:22.427Z,2.67
2023-05-14T12:12:25.549Z,3.00
2023-05-14T12:13:28.413Z,3.00
2023-05-14T12:14:31.215Z,2.67
2023-05-14T12:15:33.997Z,2.33
2023-05-14T12:16:38.460Z,2.29
2023-05-14T12:17:40.534Z,1.86
2023-05-14T12:18:43.154Z,1.86
2023-05-14T12:19:45.798Z,2.00
2023-05-14T12:20:48.348Z,2.00
2023-05-14T12:21:51.006Z,2.00
2023-05-14T12:22:53.610Z,2.00
2023-05-14T12:23:56.260Z,2.00
2023-05-14T12:24:58.786Z,2.00
2023-05-14T12:26:01.370Z,1.67
2023-05-14T12:27:03.985Z,1.00
2023-05-14T12:28:06.625Z,2.00
2023-05-14T12:29:09.272Z,2.00
2023-05-14T12:30:20.734Z,2.00
2023-05-14T12:31:15.670Z,2.00
2023-05-14T12:32:19.631Z,2.33
2023-05-14T12:33:25.211Z,2.37
2023-05-14T12:34:27.869Z,2.50
2023-05-14T12:35:30.466Z,1.67
2023-05-14T12:36:33.155Z,1.33
2023-05-14T12:37:35.958Z,2.33
2023-05-14T12:38:38.818Z,2.00
2023-05-14T12:39:41.617Z,2.00
2023-05-14T12:40:44.496Z,2.43
2023-05-14T12:41:47.358Z,2.17
2023-05-14T12:42:50.298Z,2.00
2023-05-14T12:43:52.903Z,2.33
2023-05-14T12:44:55.533Z,3.00
2023-05-14T12:45:58.191Z,3.00
2023-05-14T12:47:00.777Z,3.00
2023-05-14T12:48:03.540Z,3.33
2023-05-14T12:49:06.248Z,3.33
2023-05-14T12:50:08.825Z,2.33
2023-05-14T12:51:11.378Z,3.33
2023-05-14T12:53:17.959Z,3.43
2023-05-14T12:54:20.967Z,4.00
2023-05-14T12:55:23.834Z,4.33
2023-05-14T12:56:26.687Z,4.00
2023-05-14T12:57:29.543Z,4.00
2023-05-14T12:58:32.393Z,4.71
2023-05-14T12:59:35.278Z,4.33
2023-05-14T13:00:38.127Z,5.00
2023-05-14T13:01:41.067Z,5.00
2023-05-14T13:02:44.246Z,5.00
2023-05-14T13:03:47.299Z,5.00
2023-05-14T13:04:50.384Z,5.00
2023-05-14T13:05:53.129Z,5.00
2023-05-14T13:07:00.973Z,5.00
2023-05-14T13:08:03.794Z,5.00
2023-05-14T13:09:06.753Z,5.33
2023-05-14T13:10:09.755Z,5.67
2023-05-14T13:11:12.608Z,5.00
2023-05-14T13:12:15.410Z,5.00
2023-05-14T13:13:18.601Z,5.33
2023-05-14T13:14:21.552Z,6.00
2023-05-14T13:15:24.723Z,5.33
2023-05-14T13:16:27.804Z,5.57
2023-05-14T13:17:30.697Z,5.17
2023-05-14T13:18:33.656Z,5.17
2023-05-14T13:19:36.841Z,5.50
2023-05-14T13:20:41.221Z,5.00
2023-05-14T13:21:43.649Z,5.00
2023-05-14T13:22:46.290Z,5.00
2023-05-14T13:23:48.931Z,5.00
2023-05-14T13:24:51.489Z,5.33
2023-05-14T13:25:54.293Z,6.00
2023-05-14T13:26:58.514Z,6.00
2023-05-14T13:28:00.692Z,6.25
2023-05-14T13:29:03.319Z,6.00
2023-05-14T13:30:05.903Z,6.00
2023-05-14T13:31:08.582Z,7.00
2023-05-14T13:32:11.271Z,6.33
2023-05-14T13:33:13.943Z,7.00
2023-05-14T13:34:16.565Z,7.00
2023-05-14T13:35:19.129Z,7.33
2023-05-14T13:36:21.946Z,8.00
2023-05-14T13:37:24.807Z,7.33
2023-05-14T13:38:27.558Z,8.33
2023-05-14T13:39:30.360Z,8.00
2023-05-14T13:40:33.189Z,8.00
2023-05-14T13:41:36.137Z,8.00
2023-05-14T13:42:38.920Z,8.00
2023-05-14T13:43:41.758Z,8.33
2023-05-14T13:44:44.551Z,8.14
2023-05-14T13:45:47.424Z,7.33
2023-05-14T13:46:50.472Z,8.00
2023-05-14T13:47:53.458Z,8.43
2023-05-14T13:48:56.378Z,8.67
2023-05-14T13:49:59.024Z,8.43
2023-05-14T13:51:01.846Z,8.50
2023-05-14T13:52:04.782Z,9.17
2023-05-14T13:53:07.660Z,8.67
2023-05-14T13:54:10.460Z,8.86
2023-05-14T13:55:13.341Z,9.43
2023-05-14T13:56:16.284Z,8.00
2023-05-14T13:57:19.348Z,8.17
2023-05-14T13:58:22.137Z,8.57
2023-05-14T13:59:24.955Z,8.67
2023-05-14T14:00:28.066Z,8.67
2023-05-14T14:01:31.027Z,7.57
2023-05-14T14:02:34.315Z,8.43
2023-05-14T14:03:37.381Z,9.43
2023-05-14T14:04:40.183Z,8.83
2023-05-14T14:05:43.059Z,8.43
2023-05-14T14:06:45.974Z,9.00
2023-05-14T14:07:50.422Z,9.43
2023-05-14T14:08:52.806Z,9.43
2023-05-14T14:09:55.692Z,9.57
2023-05-14T14:10:58.492Z,9.43
2023-05-14T14:12:01.412Z,9.67
2023-05-14T14:13:04.472Z,8.57
2023-05-14T14:14:07.281Z,9.00
2023-05-14T14:15:10.088Z,8.71
2023-05-14T14:16:12.990Z,8.67
2023-05-14T14:17:15.849Z,8.00
2023-05-14T14:18:18.714Z,8.33
2023-05-14T14:19:21.828Z,9.00
2023-05-14T14:20:24.464Z,9.00
2023-05-14T14:21:27.021Z,9.00
2023-05-14T14:22:29.678Z,9.00
2023-05-14T14:23:32.389Z,8.50
2023-05-14T14:24:35.028Z,9.00
2023-05-14T14:25:37.614Z,9.00
2023-05-14T14:26:40.226Z,9.00
2023-05-14T14:27:42.796Z,9.00
2023-05-14T14:28:45.390Z,8.33
2023-05-14T14:29:48.215Z,7.33
2023-05-14T14:30:51.039Z,8.00
2023-05-14T14:31:53.779Z,7.00
2023-05-14T14:32:56.693Z,7.17
2023-05-14T14:33:59.506Z,7.33